sensor_id;sensor_type;location;lat;lon;timestamp;P1;durP1;ratioP1;P2;durP2;ratioP2
69325;SDS011;56471;53.508;49.252;2023-04-01T00:02:07;2.85;;;2.05;;
69325;SDS011;56471;53.508;49.252;2023-04-01T00:04:33;2.30;;;2.00;;
69325;SDS011;56471;53.508;49.252;2023-04-01T00:06:58;3.15;;;1.92;;
69325;SDS011;56471;53.508;49.252;2023-04-01T00:09:25;2.10;;;1.90;;
69325;SDS011;56471;53.508;49.252;2023-04-01T00:11:51;3.28;;;2.05;;
69325;SDS011;56471;53.508;49.252;2023-04-01T00:14:16;3.42;;;2.15;;
69325;SDS011;56471;53.508;49.252;2023-04-01T00:16:42;2.80;;;2.03;;
69325;SDS011;56471;53.508;49.252;2023-04-01T00:19:08;2.90;;;2.00;;
69325;SDS011;56471;53.508;49.252;2023-04-01T00:21:34;2.20;;;2.00;;
69325;SDS011;56471;53.508;49.252;2023-04-01T00:24:00;6.45;;;2.20;;
69325;SDS011;56471;53.508;49.252;2023-04-01T00:26:26;2.85;;;2.10;;
69325;SDS011;56471;53.508;49.252;2023-04-01T00:28:52;2.53;;;1.92;;
69325;SDS011;56471;53.508;49.252;2023-04-01T00:31:17;3.90;;;2.33;;
69325;SDS011;56471;53.508;49.252;2023-04-01T00:33:44;2.45;;;2.08;;
69325;SDS011;56471;53.508;49.252;2023-04-01T00:36:13;3.22;;;2.20;;
69325;SDS011;56471;53.508;49.252;2023-04-01T00:38:43;2.88;;;2.13;;
69325;SDS011;56471;53.508;49.252;2023-04-01T00:41:10;3.33;;;2.03;;
69325;SDS011;56471;53.508;49.252;2023-04-01T00:43:40;2.78;;;2.13;;
69325;SDS011;56471;53.508;49.252;2023-04-01T00:46:06;2.40;;;2.20;;
69325;SDS011;56471;53.508;49.252;2023-04-01T00:48:36;2.80;;;2.30;;
69325;SDS011;56471;53.508;49.252;2023-04-01T00:51:11;3.67;;;1.90;;
69325;SDS011;56471;53.508;49.252;2023-04-01T00:53:44;3.00;;;2.20;;
69325;SDS011;56471;53.508;49.252;2023-04-01T00:56:23;3.40;;;2.33;;
69325;SDS011;56471;53.508;49.252;2023-04-01T00:58:57;3.50;;;2.20;;
69325;SDS011;56471;53.508;49.252;2023-04-01T01:01:26;3.17;;;2.10;;
69325;SDS011;56471;53.508;49.252;2023-04-01T01:03:54;3.78;;;2.53;;
69325;SDS011;56471;53.508;49.252;2023-04-01T01:11:36;3.42;;;2.40;;
69325;SDS011;56471;53.508;49.252;2023-04-01T01:14:14;2.50;;;2.30;;
69325;SDS011;56471;53.508;49.252;2023-04-01T01:16:43;3.45;;;2.28;;
69325;SDS011;56471;53.508;49.252;2023-04-01T01:19:18;3.30;;;2.30;;
69325;SDS011;56471;53.508;49.252;2023-04-01T01:22:39;2.40;;;2.10;;
69325;SDS011;56471;53.508;49.252;2023-04-01T01:27:17;2.47;;;2.05;;
69325;SDS011;56471;53.508;49.252;2023-04-01T01:29:48;2.40;;;2.20;;
69325;SDS011;56471;53.508;49.252;2023-04-01T01:35:38;3.85;;;2.47;;
69325;SDS011;56471;53.508;49.252;2023-04-01T01:38:10;2.75;;;2.42;;
69325;SDS011;56471;53.508;49.252;2023-04-01T01:40:41;2.65;;;2.22;;
69325;SDS011;56471;53.508;49.252;2023-04-01T01:43:10;4.05;;;2.58;;
69325;SDS011;56471;53.508;49.252;2023-04-01T01:45:40;3.33;;;2.70;;
69325;SDS011;56471;53.508;49.252;2023-04-01T01:48:10;2.70;;;2.22;;
69325;SDS011;56471;53.508;49.252;2023-04-01T01:50:37;2.92;;;2.63;;
69325;SDS011;56471;53.508;49.252;2023-04-01T01:53:06;3.50;;;2.67;;
69325;SDS011;56471;53.508;49.252;2023-04-01T01:55:35;3.60;;;2.60;;
69325;SDS011;56471;53.508;49.252;2023-04-01T02:00:46;3.17;;;2.50;;
69325;SDS011;56471;53.508;49.252;2023-04-01T02:03:16;4.03;;;2.60;;
69325;SDS011;56471;53.508;49.252;2023-04-01T02:05:45;3.90;;;2.63;;
69325;SDS011;56471;53.508;49.252;2023-04-01T02:08:16;4.18;;;2.40;;
69325;SDS011;56471;53.508;49.252;2023-04-01T02:10:55;3.30;;;2.55;;
69325;SDS011;56471;53.508;49.252;2023-04-01T02:13:39;3.42;;;2.67;;
69325;SDS011;56471;53.508;49.252;2023-04-01T02:16:06;3.72;;;2.50;;
69325;SDS011;56471;53.508;49.252;2023-04-01T02:18:38;2.97;;;2.47;;
69325;SDS011;56471;53.508;49.252;2023-04-01T02:21:05;3.70;;;2.70;;
69325;SDS011;56471;53.508;49.252;2023-04-01T02:23:35;3.25;;;2.72;;
69325;SDS011;56471;53.508;49.252;2023-04-01T02:26:03;3.72;;;2.70;;
69325;SDS011;56471;53.508;49.252;2023-04-01T02:28:32;4.50;;;2.40;;
69325;SDS011;56471;53.508;49.252;2023-04-01T02:30:59;3.63;;;2.53;;
69325;SDS011;56471;53.508;49.252;2023-04-01T02:33:27;4.15;;;2.60;;
69325;SDS011;56471;53.508;49.252;2023-04-01T02:35:54;3.45;;;2.60;;
69325;SDS011;56471;53.508;49.252;2023-04-01T02:38:20;3.67;;;2.60;;
69325;SDS011;56471;53.508;49.252;2023-04-01T02:40:50;2.50;;;2.30;;
69325;SDS011;56471;53.508;49.252;2023-04-01T02:43:21;3.85;;;2.35;;
69325;SDS011;56471;53.508;49.252;2023-04-01T02:45:47;3.80;;;2.60;;
69325;SDS011;56471;53.508;49.252;2023-04-01T02:48:12;4.13;;;2.80;;
69325;SDS011;56471;53.508;49.252;2023-04-01T02:50:39;4.30;;;2.33;;
69325;SDS011;56471;53.508;49.252;2023-04-01T02:53:05;4.32;;;2.38;;
69325;SDS011;56471;53.508;49.252;2023-04-01T02:55:31;2.95;;;2.35;;
69325;SDS011;56471;53.508;49.252;2023-04-01T02:57:58;4.03;;;2.40;;
69325;SDS011;56471;53.508;49.252;2023-04-01T03:00:25;2.83;;;2.17;;
69325;SDS011;56471;53.508;49.252;2023-04-01T03:02:51;3.38;;;2.75;;
69325;SDS011;56471;53.508;49.252;2023-04-01T03:05:17;3.00;;;2.30;;
69325;SDS011;56471;53.508;49.252;2023-04-01T03:07:43;3.70;;;2.13;;
69325;SDS011;56471;53.508;49.252;2023-04-01T03:10:09;3.25;;;2.30;;
69325;SDS011;56471;53.508;49.252;2023-04-01T03:12:35;3.70;;;2.10;;
69325;SDS011;56471;53.508;49.252;2023-04-01T03:15:01;4.18;;;2.40;;
69325;SDS011;56471;53.508;49.252;2023-04-01T03:17:27;3.80;;;2.10;;
69325;SDS011;56471;53.508;49.252;2023-04-01T03:19:52;2.33;;;2.10;;
69325;SDS011;56471;53.508;49.252;2023-04-01T03:22:18;3.97;;;2.30;;
69325;SDS011;56471;53.508;49.252;2023-04-01T03:24:49;3.95;;;2.30;;
69325;SDS011;56471;53.508;49.252;2023-04-01T03:27:14;2.50;;;2.30;;
69325;SDS011;56471;53.508;49.252;2023-04-01T03:29:40;2.38;;;2.17;;
69325;SDS011;56471;53.508;49.252;2023-04-01T03:32:06;2.83;;;2.28;;
69325;SDS011;56471;53.508;49.252;2023-04-01T03:34:32;2.40;;;2.20;;
69325;SDS011;56471;53.508;49.252;2023-04-01T03:36:58;3.88;;;2.42;;
69325;SDS011;56471;53.508;49.252;2023-04-01T03:39:23;3.50;;;2.30;;
69325;SDS011;56471;53.508;49.252;2023-04-01T03:41:50;3.80;;;2.35;;
69325;SDS011;56471;53.508;49.252;2023-04-01T03:44:16;4.15;;;2.70;;
69325;SDS011;56471;53.508;49.252;2023-04-01T03:46:41;3.85;;;2.75;;
69325;SDS011;56471;53.508;49.252;2023-04-01T03:49:08;3.83;;;2.60;;
69325;SDS011;56471;53.508;49.252;2023-04-01T03:51:38;3.38;;;2.50;;
69325;SDS011;56471;53.508;49.252;2023-04-01T03:54:05;3.22;;;2.47;;
69325;SDS011;56471;53.508;49.252;2023-04-01T03:56:31;3.22;;;2.58;;
69325;SDS011;56471;53.508;49.252;2023-04-01T03:58:57;2.90;;;2.40;;
69325;SDS011;56471;53.508;49.252;2023-04-01T04:01:23;3.40;;;2.65;;
69325;SDS011;56471;53.508;49.252;2023-04-01T04:03:49;4.50;;;2.75;;
69325;SDS011;56471;53.508;49.252;2023-04-01T04:06:16;3.17;;;2.50;;
69325;SDS011;56471;53.508;49.252;2023-04-01T04:08:43;4.38;;;2.70;;
69325;SDS011;56471;53.508;49.252;2023-04-01T04:11:09;3.88;;;2.70;;
69325;SDS011;56471;53.508;49.252;2023-04-01T04:13:35;4.50;;;2.55;;
69325;SDS011;56471;53.508;49.252;2023-04-01T04:16:01;2.72;;;2.30;;
69325;SDS011;56471;53.508;49.252;2023-04-01T04:18:28;2.40;;;2.20;;
69325;SDS011;56471;53.508;49.252;2023-04-01T04:20:54;4.25;;;2.20;;
69325;SDS011;56471;53.508;49.252;2023-04-01T04:23:20;3.10;;;2.40;;
69325;SDS011;56471;53.508;49.252;2023-04-01T04:25:56;3.10;;;2.55;;
69325;SDS011;56471;53.508;49.252;2023-04-01T04:28:24;3.67;;;2.30;;
69325;SDS011;56471;53.508;49.252;2023-04-01T04:30:51;3.35;;;2.35;;
69325;SDS011;56471;53.508;49.252;2023-04-01T04:33:18;2.83;;;2.33;;
69325;SDS011;56471;53.508;49.252;2023-04-01T04:35:43;3.20;;;2.50;;
69325;SDS011;56471;53.508;49.252;2023-04-01T04:38:09;3.28;;;2.28;;
69325;SDS011;56471;53.508;49.252;2023-04-01T04:40:38;3.42;;;2.40;;
69325;SDS011;56471;53.508;49.252;2023-04-01T04:43:05;2.58;;;2.38;;
69325;SDS011;56471;53.508;49.252;2023-04-01T04:45:31;2.67;;;2.17;;
69325;SDS011;56471;53.508;49.252;2023-04-01T04:47:57;2.75;;;2.40;;
69325;SDS011;56471;53.508;49.252;2023-04-01T04:50:23;3.05;;;2.38;;
69325;SDS011;56471;53.508;49.252;2023-04-01T04:52:50;4.10;;;2.47;;
69325;SDS011;56471;53.508;49.252;2023-04-01T04:55:16;3.20;;;2.50;;
69325;SDS011;56471;53.508;49.252;2023-04-01T04:57:41;2.60;;;2.35;;
69325;SDS011;56471;53.508;49.252;2023-04-01T05:00:07;2.70;;;2.45;;
69325;SDS011;56471;53.508;49.252;2023-04-01T05:02:35;3.40;;;2.55;;
69325;SDS011;56471;53.508;49.252;2023-04-01T05:05:01;4.78;;;2.28;;
69325;SDS011;56471;53.508;49.252;2023-04-01T05:07:26;3.47;;;2.20;;
69325;SDS011;56471;53.508;49.252;2023-04-01T05:09:52;3.65;;;2.50;;
69325;SDS011;56471;53.508;49.252;2023-04-01T05:12:18;3.58;;;2.40;;
69325;SDS011;56471;53.508;49.252;2023-04-01T05:14:43;3.88;;;2.80;;
69325;SDS011;56471;53.508;49.252;2023-04-01T05:17:10;3.15;;;2.78;;
69325;SDS011;56471;53.508;49.252;2023-04-01T05:19:37;2.80;;;2.42;;
69325;SDS011;56471;53.508;49.252;2023-04-01T05:22:03;3.20;;;2.63;;
69325;SDS011;56471;53.508;49.252;2023-04-01T05:24:29;3.83;;;2.50;;
69325;SDS011;56471;53.508;49.252;2023-04-01T05:26:55;3.17;;;2.83;;
69325;SDS011;56471;53.508;49.252;2023-04-01T05:29:22;4.03;;;2.70;;
69325;SDS011;56471;53.508;49.252;2023-04-01T05:31:48;3.92;;;2.58;;
69325;SDS011;56471;53.508;49.252;2023-04-01T05:34:14;6.15;;;3.00;;
69325;SDS011;56471;53.508;49.252;2023-04-01T05:36:40;2.78;;;2.42;;
69325;SDS011;56471;53.508;49.252;2023-04-01T05:39:07;2.95;;;2.65;;
69325;SDS011;56471;53.508;49.252;2023-04-01T05:41:36;3.13;;;2.60;;
69325;SDS011;56471;53.508;49.252;2023-04-01T05:44:03;2.70;;;2.42;;
69325;SDS011;56471;53.508;49.252;2023-04-01T05:46:30;3.20;;;2.80;;
69325;SDS011;56471;53.508;49.252;2023-04-01T05:48:56;3.55;;;2.90;;
69325;SDS011;56471;53.508;49.252;2023-04-01T05:51:22;4.18;;;2.70;;
69325;SDS011;56471;53.508;49.252;2023-04-01T05:53:47;3.80;;;2.70;;
69325;SDS011;56471;53.508;49.252;2023-04-01T05:56:13;4.47;;;2.70;;
69325;SDS011;56471;53.508;49.252;2023-04-01T05:58:39;4.40;;;2.80;;
69325;SDS011;56471;53.508;49.252;2023-04-01T06:01:09;3.78;;;2.72;;
69325;SDS011;56471;53.508;49.252;2023-04-01T06:03:36;3.72;;;2.58;;
69325;SDS011;56471;53.508;49.252;2023-04-01T06:06:02;2.67;;;2.40;;
69325;SDS011;56471;53.508;49.252;2023-04-01T06:08:30;3.03;;;2.42;;
69325;SDS011;56471;53.508;49.252;2023-04-01T06:26:39;4.55;;;2.80;;
69325;SDS011;56471;53.508;49.252;2023-04-01T06:29:31;3.78;;;2.80;;
69325;SDS011;56471;53.508;49.252;2023-04-01T06:40:33;4.25;;;2.53;;
69325;SDS011;56471;53.508;49.252;2023-04-01T06:56:30;3.85;;;2.60;;
69325;SDS011;56471;53.508;49.252;2023-04-01T06:58:58;3.50;;;2.50;;
69325;SDS011;56471;53.508;49.252;2023-04-01T07:01:35;3.63;;;2.50;;
69325;SDS011;56471;53.508;49.252;2023-04-01T07:04:06;6.22;;;2.60;;
69325;SDS011;56471;53.508;49.252;2023-04-01T07:06:59;2.83;;;2.25;;
69325;SDS011;56471;53.508;49.252;2023-04-01T07:09:31;2.90;;;2.38;;
69325;SDS011;56471;53.508;49.252;2023-04-01T07:12:00;3.97;;;2.45;;
69325;SDS011;56471;53.508;49.252;2023-04-01T07:14:30;4.57;;;2.45;;
69325;SDS011;56471;53.508;49.252;2023-04-01T07:20:11;5.45;;;2.50;;
69325;SDS011;56471;53.508;49.252;2023-04-01T07:22:36;3.45;;;2.20;;
69325;SDS011;56471;53.508;49.252;2023-04-01T07:25:29;2.90;;;2.20;;
69325;SDS011;56471;53.508;49.252;2023-04-01T07:28:04;3.63;;;2.22;;
69325;SDS011;56471;53.508;49.252;2023-04-01T07:30:50;3.40;;;2.33;;
69325;SDS011;56471;53.508;49.252;2023-04-01T07:33:35;4.28;;;2.35;;
69325;SDS011;56471;53.508;49.252;2023-04-01T07:38:52;3.05;;;2.20;;
69325;SDS011;56471;53.508;49.252;2023-04-01T07:47:14;3.20;;;2.20;;
69325;SDS011;56471;53.508;49.252;2023-04-01T07:50:05;2.78;;;2.05;;
69325;SDS011;56471;53.508;49.252;2023-04-01T08:00:42;3.38;;;2.33;;
69325;SDS011;56471;53.508;49.252;2023-04-01T08:03:31;2.92;;;2.10;;
69325;SDS011;56471;53.508;49.252;2023-04-01T08:08:59;2.47;;;2.10;;
69325;SDS011;56471;53.508;49.252;2023-04-01T08:14:46;4.15;;;2.40;;
69325;SDS011;56471;53.508;49.252;2023-04-01T08:17:30;6.15;;;2.53;;
69325;SDS011;56471;53.508;49.252;2023-04-01T08:23:07;5.05;;;2.40;;
69325;SDS011;56471;53.508;49.252;2023-04-01T08:25:49;3.63;;;2.20;;
69325;SDS011;56471;53.508;49.252;2023-04-01T08:28:37;4.18;;;2.40;;
69325;SDS011;56471;53.508;49.252;2023-04-01T08:34:03;3.30;;;2.47;;
69325;SDS011;56471;53.508;49.252;2023-04-01T08:36:36;3.00;;;2.20;;
69325;SDS011;56471;53.508;49.252;2023-04-01T08:39:06;3.35;;;2.38;;
69325;SDS011;56471;53.508;49.252;2023-04-01T08:47:42;3.28;;;2.08;;
69325;SDS011;56471;53.508;49.252;2023-04-01T08:50:30;3.13;;;2.40;;
69325;SDS011;56471;53.508;49.252;2023-04-01T09:37:53;2.75;;;1.85;;
69325;SDS011;56471;53.508;49.252;2023-04-01T09:40:56;3.85;;;2.50;;
69325;SDS011;56471;53.508;49.252;2023-04-01T09:43:26;4.03;;;2.40;;
69325;SDS011;56471;53.508;49.252;2023-04-01T09:48:46;3.85;;;2.42;;
69325;SDS011;56471;53.508;49.252;2023-04-01T10:10:47;4.72;;;3.05;;
69325;SDS011;56471;53.508;49.252;2023-04-01T10:22:20;5.43;;;3.00;;
69325;SDS011;56471;53.508;49.252;2023-04-01T10:24:58;4.57;;;2.85;;
69325;SDS011;56471;53.508;49.252;2023-04-01T10:27:39;4.82;;;3.00;;
69325;SDS011;56471;53.508;49.252;2023-04-01T10:46:57;5.22;;;2.70;;
69325;SDS011;56471;53.508;49.252;2023-04-01T10:53:00;4.45;;;2.67;;
69325;SDS011;56471;53.508;49.252;2023-04-01T10:55:48;4.13;;;2.67;;
69325;SDS011;56471;53.508;49.252;2023-04-01T10:59:00;3.40;;;2.60;;
69325;SDS011;56471;53.508;49.252;2023-04-01T11:27:04;4.75;;;2.30;;
69325;SDS011;56471;53.508;49.252;2023-04-01T11:38:20;4.38;;;2.28;;
69325;SDS011;56471;53.508;49.252;2023-04-01T12:01:29;4.22;;;2.20;;
69325;SDS011;56471;53.508;49.252;2023-04-01T12:04:17;3.35;;;2.25;;
69325;SDS011;56471;53.508;49.252;2023-04-01T12:06:54;4.28;;;2.53;;
69325;SDS011;56471;53.508;49.252;2023-04-01T12:09:55;3.88;;;2.45;;
69325;SDS011;56471;53.508;49.252;2023-04-01T12:18:18;5.47;;;2.60;;
69325;SDS011;56471;53.508;49.252;2023-04-01T12:21:13;4.18;;;2.47;;
69325;SDS011;56471;53.508;49.252;2023-04-01T12:32:55;4.88;;;2.30;;
69325;SDS011;56471;53.508;49.252;2023-04-01T12:55:35;3.88;;;2.58;;
69325;SDS011;56471;53.508;49.252;2023-04-01T13:04:08;5.18;;;2.45;;
69325;SDS011;56471;53.508;49.252;2023-04-01T13:06:53;3.63;;;2.22;;
69325;SDS011;56471;53.508;49.252;2023-04-01T13:09:52;4.82;;;2.30;;
69325;SDS011;56471;53.508;49.252;2023-04-01T13:29:38;1371.68;;;732.13;;
69325;SDS011;56471;53.508;49.252;2023-04-01T13:37:30;949.25;;;575.33;;
69325;SDS011;56471;53.508;49.252;2023-04-01T13:40:18;809.13;;;485.48;;
69325;SDS011;56471;53.508;49.252;2023-04-01T13:43:12;695.63;;;395.52;;
69325;SDS011;56471;53.508;49.252;2023-04-01T13:51:36;475.05;;;258.92;;
69325;SDS011;56471;53.508;49.252;2023-04-01T13:54:29;442.17;;;229.93;;
69325;SDS011;56471;53.508;49.252;2023-04-01T14:14:05;141.82;;;65.20;;
69325;SDS011;56471;53.508;49.252;2023-04-01T14:27:19;83.85;;;34.83;;
69325;SDS011;56471;53.508;49.252;2023-04-01T14:35:24;45.42;;;19.48;;
69325;SDS011;56471;53.508;49.252;2023-04-01T14:40:49;34.67;;;15.18;;
69325;SDS011;56471;53.508;49.252;2023-04-01T14:43:33;31.60;;;12.95;;
69325;SDS011;56471;53.508;49.252;2023-04-01T14:49:37;25.70;;;9.90;;
69325;SDS011;56471;53.508;49.252;2023-04-01T14:54:46;16.20;;;7.40;;
69325;SDS011;56471;53.508;49.252;2023-04-01T14:57:31;14.60;;;6.70;;
69325;SDS011;56471;53.508;49.252;2023-04-01T15:05:43;13.32;;;6.03;;
69325;SDS011;56471;53.508;49.252;2023-04-01T15:08:29;11.23;;;5.78;;
69325;SDS011;56471;53.508;49.252;2023-04-01T15:11:17;9.90;;;5.05;;
69325;SDS011;56471;53.508;49.252;2023-04-01T15:27:29;8.98;;;4.28;;
69325;SDS011;56471;53.508;49.252;2023-04-01T15:36:04;7.78;;;3.88;;
69325;SDS011;56471;53.508;49.252;2023-04-01T15:43:54;6.75;;;3.75;;
69325;SDS011;56471;53.508;49.252;2023-04-01T15:55:11;8.70;;;3.87;;
69325;SDS011;56471;53.508;49.252;2023-04-01T16:00:47;7.18;;;3.63;;
69325;SDS011;56471;53.508;49.252;2023-04-01T16:22:25;7.90;;;3.60;;
69325;SDS011;56471;53.508;49.252;2023-04-01T16:39:15;7.32;;;3.55;;
69325;SDS011;56471;53.508;49.252;2023-04-01T16:41:47;7.28;;;3.65;;
69325;SDS011;56471;53.508;49.252;2023-04-01T16:46:46;5.72;;;3.38;;
69325;SDS011;56471;53.508;49.252;2023-04-01T16:49:39;6.47;;;3.40;;
69325;SDS011;56471;53.508;49.252;2023-04-01T16:54:36;6.03;;;3.33;;
69325;SDS011;56471;53.508;49.252;2023-04-01T16:59:47;8.10;;;3.17;;
69325;SDS011;56471;53.508;49.252;2023-04-01T17:02:38;5.93;;;3.45;;
69325;SDS011;56471;53.508;49.252;2023-04-01T17:08:55;6.60;;;3.50;;
69325;SDS011;56471;53.508;49.252;2023-04-01T17:14:24;6.80;;;3.65;;
69325;SDS011;56471;53.508;49.252;2023-04-01T17:20:54;8.32;;;3.40;;
69325;SDS011;56471;53.508;49.252;2023-04-01T17:26:17;5.78;;;3.30;;
69325;SDS011;56471;53.508;49.252;2023-04-01T17:28:46;7.07;;;3.40;;
69325;SDS011;56471;53.508;49.252;2023-04-01T17:31:42;6.40;;;3.30;;
69325;SDS011;56471;53.508;49.252;2023-04-01T17:42:26;5.85;;;3.50;;
69325;SDS011;56471;53.508;49.252;2023-04-01T17:45:10;7.45;;;3.60;;
69325;SDS011;56471;53.508;49.252;2023-04-01T17:58:29;5.82;;;3.60;;
69325;SDS011;56471;53.508;49.252;2023-04-01T18:25:50;5.93;;;3.28;;
69325;SDS011;56471;53.508;49.252;2023-04-01T18:31:15;4.07;;;2.95;;
69325;SDS011;56471;53.508;49.252;2023-04-01T18:33:59;5.20;;;3.22;;
69325;SDS011;56471;53.508;49.252;2023-04-01T18:45:32;4.38;;;2.90;;
69325;SDS011;56471;53.508;49.252;2023-04-01T18:51:14;5.97;;;3.10;;
69325;SDS011;56471;53.508;49.252;2023-04-01T18:53:58;3.97;;;2.80;;
69325;SDS011;56471;53.508;49.252;2023-04-01T18:56:37;4.05;;;2.85;;
69325;SDS011;56471;53.508;49.252;2023-04-01T18:59:05;6.03;;;3.05;;
69325;SDS011;56471;53.508;49.252;2023-04-01T19:01:59;4.05;;;2.70;;
69325;SDS011;56471;53.508;49.252;2023-04-01T19:04:50;4.57;;;2.63;;
69325;SDS011;56471;53.508;49.252;2023-04-01T19:10:16;4.82;;;2.70;;
69325;SDS011;56471;53.508;49.252;2023-04-01T19:20:51;4.13;;;2.70;;
69325;SDS011;56471;53.508;49.252;2023-04-01T19:25:57;3.22;;;2.60;;
69325;SDS011;56471;53.508;49.252;2023-04-01T19:36:45;4.50;;;2.50;;
69325;SDS011;56471;53.508;49.252;2023-04-01T19:42:22;3.90;;;2.63;;
69325;SDS011;56471;53.508;49.252;2023-04-01T19:47:42;3.33;;;2.25;;
69325;SDS011;56471;53.508;49.252;2023-04-01T19:50:39;4.90;;;2.50;;
69325;SDS011;56471;53.508;49.252;2023-04-01T19:56:19;4.38;;;2.60;;
69325;SDS011;56471;53.508;49.252;2023-04-01T20:04:17;3.95;;;2.10;;
69325;SDS011;56471;53.508;49.252;2023-04-01T20:09:38;2.55;;;2.15;;
69325;SDS011;56471;53.508;49.252;2023-04-01T20:14:59;5.57;;;2.70;;
69325;SDS011;56471;53.508;49.252;2023-04-01T20:17:42;568.30;;;356.35;;
69325;SDS011;56471;53.508;49.252;2023-04-01T20:25:16;986.08;;;613.13;;
69325;SDS011;56471;53.508;49.252;2023-04-01T20:28:00;901.03;;;565.55;;
69325;SDS011;56471;53.508;49.252;2023-04-01T20:44:16;604.55;;;347.55;;
69325;SDS011;56471;53.508;49.252;2023-04-01T20:47:18;575.47;;;333.83;;
69325;SDS011;56471;53.508;49.252;2023-04-01T21:03:55;404.98;;;214.95;;
69325;SDS011;56471;53.508;49.252;2023-04-01T21:06:27;376.20;;;190.07;;
69325;SDS011;56471;53.508;49.252;2023-04-01T21:11:41;491.58;;;296.33;;
69325;SDS011;56471;53.508;49.252;2023-04-01T21:17:08;738.47;;;492.35;;
69325;SDS011;56471;53.508;49.252;2023-04-01T21:22:28;677.53;;;445.58;;
69325;SDS011;56471;53.508;49.252;2023-04-01T21:27:39;611.55;;;384.98;;
69325;SDS011;56471;53.508;49.252;2023-04-01T21:35:44;544.88;;;339.95;;
69325;SDS011;56471;53.508;49.252;2023-04-01T21:38:35;515.72;;;316.48;;
69325;SDS011;56471;53.508;49.252;2023-04-01T21:55:27;401.80;;;230.73;;
69325;SDS011;56471;53.508;49.252;2023-04-01T21:58:37;384.05;;;216.02;;
69325;SDS011;56471;53.508;49.252;2023-04-01T22:01:31;357.48;;;192.05;;
69325;SDS011;56471;53.508;49.252;2023-04-01T22:04:34;344.02;;;181.13;;
69325;SDS011;56471;53.508;49.252;2023-04-01T22:07:20;324.05;;;171.25;;
69325;SDS011;56471;53.508;49.252;2023-04-01T22:12:59;295.15;;;150.80;;
69325;SDS011;56471;53.508;49.252;2023-04-01T22:19:04;257.80;;;134.35;;
69325;SDS011;56471;53.508;49.252;2023-04-01T22:30:22;220.07;;;112.10;;
69325;SDS011;56471;53.508;49.252;2023-04-01T22:32:56;208.00;;;107.63;;
69325;SDS011;56471;53.508;49.252;2023-04-01T22:43:40;174.43;;;90.38;;
69325;SDS011;56471;53.508;49.252;2023-04-01T22:57:04;139.10;;;69.30;;
69325;SDS011;56471;53.508;49.252;2023-04-01T22:59:34;136.60;;;67.75;;
69325;SDS011;56471;53.508;49.252;2023-04-01T23:02:03;124.47;;;62.15;;
69325;SDS011;56471;53.508;49.252;2023-04-01T23:04:37;124.93;;;61.33;;
69325;SDS011;56471;53.508;49.252;2023-04-01T23:07:17;119.15;;;57.22;;
69325;SDS011;56471;53.508;49.252;2023-04-01T23:09:54;113.40;;;55.60;;
69325;SDS011;56471;53.508;49.252;2023-04-01T23:12:21;109.75;;;53.80;;
69325;SDS011;56471;53.508;49.252;2023-04-01T23:14:56;103.03;;;49.40;;
69325;SDS011;56471;53.508;49.252;2023-04-01T23:20:33;95.22;;;45.30;;
69325;SDS011;56471;53.508;49.252;2023-04-01T23:23:17;95.55;;;45.08;;
69325;SDS011;56471;53.508;49.252;2023-04-01T23:26:10;88.38;;;40.88;;
69325;SDS011;56471;53.508;49.252;2023-04-01T23:37:11;75.97;;;33.88;;
69325;SDS011;56471;53.508;49.252;2023-04-01T23:39:36;76.35;;;34.05;;
69325;SDS011;56471;53.508;49.252;2023-04-01T23:44:52;64.70;;;29.38;;
69325;SDS011;56471;53.508;49.252;2023-04-01T23:47:21;56.97;;;27.45;;
69325;SDS011;56471;53.508;49.252;2023-04-01T23:50:23;59.17;;;25.50;;
69325;SDS011;56471;53.508;49.252;2023-04-01T23:52:53;52.47;;;24.17;;
69325;SDS011;56471;53.508;49.252;2023-04-01T23:58:06;51.40;;;23.33;;
